createdAt,value
2018-06-14T00:00:37.936Z,58.37
2018-06-14T00:03:05.510Z,58.41
2018-06-14T00:05:33.095Z,58.31
2018-06-14T00:08:01.796Z,58.17
2018-06-14T00:10:29.374Z,58.54
2018-06-14T00:12:57.008Z,58.15
2018-06-14T00:15:24.608Z,58.76
2018-06-14T00:17:52.467Z,58.36
2018-06-14T00:20:20.047Z,58.80
2018-06-14T00:22:47.638Z,58.97
2018-06-14T00:25:15.222Z,58.61
2018-06-14T00:27:44.337Z,58.51
2018-06-14T00:30:11.889Z,58.84
2018-06-14T00:32:39.451Z,58.35
2018-06-14T00:35:07.046Z,58.49
2018-06-14T00:37:34.892Z,58.86
2018-06-14T00:40:02.480Z,58.70
2018-06-14T00:42:30.068Z,59.00
2018-06-14T00:44:57.634Z,58.73
2018-06-14T00:47:26.087Z,59.31
2018-06-14T00:49:53.652Z,58.85
2018-06-14T00:52:21.210Z,59.39
2018-06-14T00:54:48.774Z,58.82
2018-06-14T00:57:17.367Z,59.63
2018-06-14T00:59:44.950Z,59.26
2018-06-14T01:02:13.169Z,59.29
2018-06-14T01:04:40.749Z,59.93
2018-06-14T01:07:09.199Z,59.63
2018-06-14T01:09:37.361Z,59.37
2018-06-14T01:12:04.964Z,60.21
2018-06-14T01:14:34.163Z,60.15
2018-06-14T01:17:02.071Z,59.96
2018-06-14T01:19:29.661Z,59.72
2018-06-14T01:21:57.214Z,60.20
2018-06-14T01:24:24.779Z,59.82
2018-06-14T01:26:53.553Z,60.24
2018-06-14T01:29:21.118Z,59.85
2018-06-14T01:31:48.692Z,60.46
2018-06-14T01:34:16.883Z,60.23
2018-06-14T01:36:44.727Z,60.37
2018-06-14T01:39:12.318Z,60.34
2018-06-14T01:41:39.900Z,60.07
2018-06-14T01:44:07.462Z,60.20
2018-06-14T01:46:35.716Z,59.71
2018-06-14T01:49:03.324Z,60.21
2018-06-14T01:51:30.946Z,59.87
2018-06-14T01:53:58.530Z,60.41
2018-06-14T01:56:26.502Z,60.02
2018-06-14T01:58:54.078Z,60.31
2018-06-14T02:01:21.678Z,60.30
2018-06-14T02:03:49.410Z,60.25
2018-06-14T02:06:17.304Z,60.34
2018-06-14T02:08:44.878Z,60.20
2018-06-14T02:11:13.405Z,60.40
2018-06-14T02:13:41.247Z,60.71
2018-06-14T02:16:10.130Z,60.60
2018-06-14T02:18:41.549Z,60.77
2018-06-14T02:21:10.036Z,60.52
2018-06-14T02:23:37.957Z,60.57
2018-06-14T02:26:05.656Z,60.36
2018-06-14T02:28:33.240Z,60.62
2018-06-14T02:31:03.822Z,60.42
2018-06-14T02:33:31.687Z,60.33
2018-06-14T02:35:59.335Z,60.47
2018-06-14T02:38:26.913Z,60.65
2018-06-14T02:40:55.791Z,60.52
2018-06-14T02:43:23.666Z,60.47
2018-06-14T02:45:51.627Z,61.06
2018-06-14T02:48:19.187Z,61.10
2018-06-14T02:50:47.050Z,60.99
2018-06-14T02:53:14.719Z,60.85
2018-06-14T02:55:42.302Z,60.66
2018-06-14T02:58:17.743Z,60.67
2018-06-14T03:00:45.638Z,60.98
2018-06-14T03:03:13.219Z,61.00
2018-06-14T03:05:41.158Z,60.97
2018-06-14T03:08:08.745Z,60.69
2018-06-14T03:10:36.595Z,60.72
2018-06-14T03:13:05.526Z,60.88
2018-06-14T03:15:33.867Z,60.92
2018-06-14T03:18:01.803Z,61.17
2018-06-14T03:20:32.424Z,60.91
2018-06-14T03:23:00.113Z,61.02
2018-06-14T03:25:27.974Z,61.04
2018-06-14T03:27:55.553Z,60.60
2018-06-14T03:30:23.202Z,60.99
2018-06-14T03:32:51.706Z,61.40
2018-06-14T03:35:20.084Z,60.58
2018-06-14T03:37:47.686Z,61.16
2018-06-14T03:40:15.299Z,60.63
2018-06-14T03:42:44.594Z,60.99
2018-06-14T03:45:17.047Z,61.22
2018-06-14T03:47:44.627Z,60.81
2018-06-14T03:50:12.199Z,60.78
2018-06-14T03:52:39.755Z,61.27
2018-06-14T03:55:07.620Z,60.77
2018-06-14T03:57:35.187Z,60.84
2018-06-14T04:00:02.794Z,60.80
2018-06-14T04:02:30.399Z,60.78
2018-06-14T04:04:59.305Z,60.99
2018-06-14T04:07:27.588Z,61.44
2018-06-14T04:09:57.108Z,61.25
2018-06-14T04:12:24.714Z,60.98
2018-06-14T04:14:52.551Z,61.12
2018-06-14T04:17:20.146Z,61.20
2018-06-14T04:19:47.701Z,60.64
2018-06-14T04:22:15.265Z,61.33
2018-06-14T04:24:43.274Z,61.31
2018-06-14T04:27:11.133Z,61.15
2018-06-14T04:29:38.706Z,61.39
2018-06-14T04:32:06.463Z,61.13
2018-06-14T04:34:34.331Z,61.00
2018-06-14T04:37:01.919Z,61.00
2018-06-14T04:39:29.926Z,61.01
2018-06-14T04:41:57.973Z,61.21
2018-06-14T04:44:25.568Z,61.04
2018-06-14T04:46:53.318Z,60.98
2018-06-14T04:49:21.165Z,60.76
2018-06-14T04:51:48.718Z,60.83
2018-06-14T04:54:16.385Z,61.39
2018-06-14T04:56:44.232Z,61.24
2018-06-14T04:59:12.103Z,61.16
2018-06-14T05:01:40.414Z,61.49
2018-06-14T05:04:08.249Z,60.94
2018-06-14T05:06:35.823Z,61.24
2018-06-14T05:09:04.151Z,61.47
2018-06-14T05:11:32.027Z,61.21
2018-06-14T05:14:00.267Z,60.98
2018-06-14T05:16:28.605Z,61.21
2018-06-14T05:18:56.503Z,61.50
2018-06-14T05:21:24.166Z,60.81
2018-06-14T05:23:51.770Z,61.57
2018-06-14T05:26:19.646Z,61.06
2018-06-14T05:28:48.258Z,61.33
2018-06-14T05:31:15.834Z,60.76
2018-06-14T05:33:43.786Z,61.07
2018-06-14T05:36:11.370Z,61.24
2018-06-14T05:38:39.567Z,61.15
2018-06-14T05:41:07.406Z,60.50
2018-06-14T05:43:36.608Z,60.59
2018-06-14T05:46:04.966Z,60.82
2018-06-14T05:48:33.517Z,61.22
2018-06-14T05:51:01.082Z,60.59
2018-06-14T05:53:28.640Z,60.46
2018-06-14T05:55:56.519Z,60.54
2018-06-14T05:58:24.086Z,60.20
2018-06-14T06:00:51.687Z,60.02
2018-06-14T06:03:19.581Z,59.81
2018-06-14T06:05:47.198Z,60.11
2018-06-14T06:08:14.791Z,59.86
2018-06-14T06:10:42.621Z,59.25
2018-06-14T06:13:10.211Z,59.59
2018-06-14T06:15:37.794Z,59.37
2018-06-14T06:18:05.690Z,58.70
2018-06-14T06:20:33.281Z,58.30
2018-06-14T06:23:00.850Z,58.56
2018-06-14T06:25:29.334Z,58.17
2018-06-14T06:27:57.061Z,58.16
2018-06-14T06:30:24.652Z,58.23
2018-06-14T06:32:52.504Z,57.68
2018-06-14T06:35:20.307Z,57.41
2018-06-14T06:37:47.898Z,57.02
2018-06-14T06:40:16.441Z,57.03
2018-06-14T06:42:44.034Z,57.45
2018-06-14T06:45:11.621Z,57.07
2018-06-14T06:47:39.471Z,56.88
2018-06-14T06:50:07.767Z,56.55
2018-06-14T06:52:35.346Z,56.61
2018-06-14T06:55:03.181Z,56.10
2018-06-14T06:57:30.758Z,55.92
2018-06-14T06:59:58.326Z,55.97
2018-06-14T07:02:26.154Z,55.56
2018-06-14T07:04:53.721Z,55.34
2018-06-14T07:07:21.274Z,55.46
2018-06-14T07:09:49.452Z,55.54
2018-06-14T07:12:17.178Z,54.92
2018-06-14T07:14:44.766Z,54.73
2018-06-14T07:17:12.614Z,53.94
2018-06-14T07:19:41.170Z,54.10
2018-06-14T07:22:08.774Z,53.84
2018-06-14T07:24:36.635Z,53.40
2018-06-14T07:27:04.208Z,53.54
2018-06-14T07:29:31.822Z,53.42
2018-06-14T07:31:59.728Z,52.86
2018-06-14T07:34:27.314Z,52.13
2018-06-14T07:36:56.001Z,52.58
2018-06-14T07:39:25.245Z,52.57
2018-06-14T07:44:27.623Z,52.10
2018-06-14T07:46:55.201Z,51.43
2018-06-14T07:49:22.754Z,51.14
2018-06-14T07:51:51.441Z,51.48
2018-06-14T07:54:19.121Z,51.67
2018-06-14T07:56:46.966Z,51.49
2018-06-14T07:59:14.534Z,51.35
2018-06-14T08:01:42.134Z,51.07
2018-06-14T08:04:09.975Z,50.70
2018-06-14T08:06:38.494Z,50.36
2018-06-14T08:09:06.215Z,50.40
2018-06-14T08:11:34.330Z,50.01
2018-06-14T08:14:03.249Z,50.42
2018-06-14T08:16:30.852Z,50.35
2018-06-14T08:18:59.414Z,49.70
2018-06-14T08:21:26.986Z,49.48
2018-06-14T08:23:54.581Z,49.31
2018-06-14T08:26:25.393Z,49.02
2018-06-14T08:28:53.006Z,48.83
2018-06-14T08:31:22.311Z,49.41
2018-06-14T08:33:51.310Z,48.66
2018-06-14T08:36:18.882Z,48.26
2018-06-14T08:38:46.662Z,48.06
2018-06-14T08:41:14.681Z,48.73
2018-06-14T08:43:43.329Z,48.19
2018-06-14T08:46:10.891Z,47.66
2018-06-14T08:48:38.750Z,48.09
2018-06-14T08:51:06.311Z,47.79
2018-06-14T08:53:33.855Z,47.78
2018-06-14T08:56:02.147Z,47.85
2018-06-14T08:58:29.763Z,47.52
2018-06-14T09:00:57.343Z,47.12
2018-06-14T09:03:26.162Z,47.21
2018-06-14T09:05:53.856Z,47.14
2018-06-14T09:08:21.679Z,47.22
2018-06-14T09:10:49.542Z,46.38
2018-06-14T09:13:17.941Z,46.28
2018-06-14T09:15:45.551Z,46.29
2018-06-14T09:18:13.392Z,46.80
2018-06-14T09:20:42.326Z,46.36
2018-06-14T09:23:09.906Z,46.34
2018-06-14T09:25:38.422Z,45.92
2018-06-14T09:28:06.030Z,46.69
2018-06-14T09:30:33.642Z,46.12
2018-06-14T09:33:01.633Z,46.40
2018-06-14T09:35:29.194Z,45.83
2018-06-14T09:37:56.762Z,46.15
2018-06-14T09:40:24.623Z,46.19
2018-06-14T09:42:52.262Z,45.75
2018-06-14T09:45:19.865Z,45.81
2018-06-14T09:47:48.438Z,45.99
2018-06-14T09:50:16.666Z,45.69
2018-06-14T09:52:44.252Z,45.97
2018-06-14T09:55:12.186Z,45.40
2018-06-14T09:57:39.766Z,45.78
2018-06-14T10:00:07.336Z,44.86
2018-06-14T10:02:36.606Z,45.04
2018-06-14T10:05:04.210Z,45.38
2018-06-14T10:07:31.786Z,45.21
2018-06-14T10:09:59.719Z,44.49
2018-06-14T10:12:28.227Z,44.29
2018-06-14T10:14:55.820Z,44.00
2018-06-14T10:17:23.713Z,44.08
2018-06-14T10:19:51.524Z,43.78
2018-06-14T10:22:19.655Z,44.77
2018-06-14T10:24:49.608Z,44.58
2018-06-14T10:27:18.210Z,44.21
2018-06-14T10:29:48.898Z,43.78
2018-06-14T10:32:17.666Z,44.31
2018-06-14T10:34:45.249Z,44.33
2018-06-14T10:37:12.893Z,43.93
2018-06-14T10:39:42.451Z,44.11
2018-06-14T10:42:10.060Z,43.38
2018-06-14T10:44:38.475Z,43.43
2018-06-14T10:47:07.435Z,44.23
2018-06-14T10:49:35.018Z,43.38
2018-06-14T10:52:03.466Z,43.96
2018-06-14T10:54:33.219Z,44.09
2018-06-14T10:57:01.650Z,44.10
2018-06-14T10:59:29.214Z,43.37
2018-06-14T11:01:57.130Z,44.00
2018-06-14T11:04:24.743Z,44.42
2018-06-14T11:06:53.230Z,44.05
2018-06-14T11:09:23.094Z,43.70
2018-06-14T11:11:51.246Z,43.46
2018-06-14T11:14:19.947Z,43.74
2018-06-14T11:16:48.626Z,43.06
2018-06-14T11:19:18.310Z,43.19
2018-06-14T11:21:47.291Z,42.93
2018-06-14T11:24:17.960Z,43.57
2018-06-14T11:26:49.088Z,42.87
2018-06-14T11:29:16.681Z,42.92
2018-06-14T11:31:47.202Z,42.83
2018-06-14T11:34:17.786Z,43.17
2018-06-14T11:36:45.368Z,43.14
2018-06-14T11:39:13.660Z,43.31
2018-06-14T11:41:41.857Z,42.23
2018-06-14T11:44:11.218Z,42.62
2018-06-14T11:46:39.906Z,43.32
2018-06-14T11:49:07.550Z,43.15
2018-06-14T11:51:36.070Z,43.15
2018-06-14T11:54:03.934Z,43.10
2018-06-14T11:56:32.348Z,42.95
2018-06-14T11:58:59.938Z,42.36
2018-06-14T12:01:30.300Z,43.07
2018-06-14T12:04:01.523Z,42.28
2018-06-14T12:06:33.384Z,42.07
2018-06-14T12:09:01.267Z,42.78
2018-06-14T12:11:29.917Z,42.86
2018-06-14T12:13:57.510Z,42.15
2018-06-14T12:16:25.362Z,42.64
2018-06-14T12:18:53.015Z,42.51
2018-06-14T12:21:21.220Z,42.17
2018-06-14T12:23:49.070Z,42.68
2018-06-14T12:26:16.681Z,42.68
2018-06-14T12:28:44.266Z,42.26
2018-06-14T12:31:12.159Z,42.82
2018-06-14T12:33:39.751Z,42.20
2018-06-14T12:36:07.651Z,42.92
2018-06-14T12:38:35.514Z,42.28
2018-06-14T12:41:03.135Z,42.60
2018-06-14T12:43:30.698Z,42.96
2018-06-14T12:45:58.611Z,42.55
2018-06-14T12:48:26.810Z,42.27
2018-06-14T12:50:54.390Z,42.45
2018-06-14T12:53:21.958Z,42.77
2018-06-14T12:55:49.595Z,42.79
2018-06-14T12:58:17.532Z,42.49
2018-06-14T13:00:47.020Z,42.27
2018-06-14T13:03:14.601Z,42.35
2018-06-14T13:05:43.802Z,41.79
2018-06-14T13:08:14.387Z,42.06
2018-06-14T13:10:42.991Z,42.44
2018-06-14T13:13:12.254Z,42.62
2018-06-14T13:15:40.476Z,42.18
2018-06-14T13:18:09.235Z,41.99
2018-06-14T13:20:38.720Z,42.42
2018-06-14T13:23:06.362Z,42.02
2018-06-14T13:25:34.572Z,42.87
2018-06-14T13:28:02.897Z,41.97
2018-06-14T13:30:30.478Z,42.76
2018-06-14T13:33:00.877Z,42.06
2018-06-14T13:35:29.271Z,42.32
2018-06-14T13:37:58.272Z,42.62
2018-06-14T13:40:26.546Z,42.61
2018-06-14T13:42:55.342Z,42.21
2018-06-14T13:45:22.927Z,42.23
2018-06-14T13:47:50.526Z,42.11
2018-06-14T13:50:19.305Z,42.74
2018-06-14T13:52:46.931Z,42.74
2018-06-14T13:55:14.501Z,42.16
2018-06-14T13:57:42.445Z,42.32
2018-06-14T14:00:10.836Z,42.71
2018-06-14T14:02:38.466Z,42.64
2018-06-14T14:05:06.358Z,42.85
2018-06-14T14:07:35.108Z,42.83
2018-06-14T14:10:02.719Z,42.53
2018-06-14T14:12:31.276Z,42.55
2018-06-14T14:14:58.860Z,42.36
2018-06-14T14:17:27.328Z,42.45
2018-06-14T14:19:55.180Z,42.60
2018-06-14T14:22:22.802Z,42.38
2018-06-14T14:24:51.325Z,43.04
2018-06-14T14:27:19.253Z,42.94
2018-06-14T14:29:47.400Z,42.69
2018-06-14T14:32:14.958Z,43.40
2018-06-14T14:34:43.415Z,43.43
2018-06-14T14:37:12.704Z,42.83
2018-06-14T14:39:41.897Z,43.15
2018-06-14T14:42:12.724Z,43.03
2018-06-14T14:44:41.522Z,43.68
2018-06-14T14:47:09.239Z,43.56
2018-06-14T14:49:37.382Z,42.89
2018-06-14T14:52:05.878Z,42.99
2018-06-14T14:54:36.438Z,43.71
2018-06-14T14:57:07.199Z,43.83
2018-06-14T14:59:35.391Z,43.67
2018-06-14T15:02:04.454Z,43.29
2018-06-14T15:04:32.615Z,43.71
2018-06-14T15:07:04.640Z,43.85
2018-06-14T15:14:58.894Z,43.21
2018-06-14T15:17:30.148Z,43.48
2018-06-14T15:25:17.857Z,43.57
2018-06-14T15:27:48.664Z,44.05
2018-06-14T15:30:16.869Z,44.18
2018-06-14T15:32:51.898Z,43.99
2018-06-14T15:35:20.590Z,44.57
2018-06-14T15:37:49.298Z,44.83
2018-06-14T15:40:18.298Z,44.60
2018-06-14T15:42:51.290Z,44.92
2018-06-14T15:45:18.862Z,45.15
2018-06-14T15:47:46.571Z,45.75
2018-06-14T15:50:14.472Z,45.51
2018-06-14T15:52:42.826Z,46.70
2018-06-14T15:55:10.670Z,46.90
2018-06-14T15:57:38.519Z,46.62
2018-06-14T16:00:06.730Z,47.42
2018-06-14T16:02:35.467Z,48.05
2018-06-14T16:05:03.348Z,48.75
2018-06-14T16:07:30.958Z,49.49
2018-06-14T16:09:59.550Z,49.42
2018-06-14T16:12:29.569Z,50.65
2018-06-14T16:14:57.287Z,50.99
2018-06-14T16:17:25.371Z,51.38
2018-06-14T16:19:56.020Z,51.67
2018-06-14T16:22:24.255Z,52.77
2018-06-14T16:24:52.726Z,53.19
2018-06-14T16:27:21.434Z,53.12
2018-06-14T16:29:50.312Z,53.51
2018-06-14T16:32:20.394Z,54.53
2018-06-14T16:34:53.605Z,54.61
2018-06-14T16:37:21.963Z,55.77
2018-06-14T16:39:49.531Z,55.73
2018-06-14T16:42:19.140Z,56.24
2018-06-14T16:44:47.291Z,57.53
2018-06-14T16:47:14.871Z,57.95
2018-06-14T16:49:43.351Z,57.99
2018-06-14T16:52:11.212Z,58.28
2018-06-14T16:54:39.730Z,58.41
2018-06-14T16:57:07.595Z,58.28
2018-06-14T16:59:35.182Z,58.57
2018-06-14T17:02:02.785Z,58.15
2018-06-14T17:04:30.626Z,58.48
2018-06-14T17:06:58.357Z,58.22
2018-06-14T17:09:27.170Z,58.85
2018-06-14T17:11:56.328Z,58.18
2018-06-14T17:14:24.578Z,59.21
2018-06-14T17:16:52.166Z,59.04
2018-06-14T17:19:20.238Z,59.50
2018-06-14T17:21:47.822Z,59.06
2018-06-14T17:24:16.272Z,59.91
2018-06-14T17:26:44.146Z,59.88
2018-06-14T17:29:11.767Z,60.25
2018-06-14T17:31:40.325Z,60.07
2018-06-14T17:34:10.330Z,60.66
2018-06-14T17:36:38.822Z,60.39
2018-06-14T17:39:06.400Z,61.58
2018-06-14T17:41:36.288Z,61.37
2018-06-14T17:44:03.806Z,61.67
2018-06-14T17:46:31.379Z,62.81
2018-06-14T17:49:01.426Z,62.25
2018-06-14T17:51:32.345Z,63.10
2018-06-14T17:54:01.187Z,62.75
2018-06-14T17:56:31.286Z,63.23
2018-06-14T17:59:00.354Z,63.29
2018-06-14T18:01:32.462Z,64.08
2018-06-14T18:04:01.291Z,64.33
2018-06-14T18:06:29.636Z,64.25
2018-06-14T18:08:58.126Z,64.46
2018-06-14T18:11:27.320Z,64.73
2018-06-14T18:13:55.814Z,65.47
2018-06-14T18:16:24.547Z,65.08
2018-06-14T18:21:25.534Z,65.13
2018-06-14T18:23:54.560Z,65.92
2018-06-14T18:26:29.571Z,65.48
2018-06-14T18:28:58.880Z,66.40
2018-06-14T18:31:26.448Z,66.37
2018-06-14T18:33:58.190Z,65.96
2018-06-14T18:36:25.788Z,66.79
2018-06-14T18:38:54.335Z,66.91
2018-06-14T18:41:24.452Z,66.42
2018-06-14T18:43:53.300Z,66.32
2018-06-14T18:46:22.476Z,66.53
2018-06-14T18:48:50.378Z,67.06
2018-06-14T18:51:18.471Z,66.99
2018-06-14T18:53:48.349Z,66.62
2018-06-14T18:56:16.246Z,66.65
2018-06-14T18:58:45.450Z,67.27
2018-06-14T19:01:13.692Z,67.28
2018-06-14T19:03:41.576Z,67.59
2018-06-14T19:06:09.938Z,67.36
2018-06-14T19:08:38.513Z,66.99
2018-06-14T19:11:12.510Z,67.46
2018-06-14T19:13:40.201Z,67.81
2018-06-14T19:16:08.467Z,67.14
2018-06-14T19:18:36.382Z,67.86
2018-06-14T19:21:05.411Z,67.67
2018-06-14T19:23:33.791Z,67.13
2018-06-14T19:26:01.766Z,67.05
2018-06-14T19:28:29.430Z,67.35
2018-06-14T19:30:56.999Z,67.26
2018-06-14T19:33:24.854Z,68.02
2018-06-14T19:35:52.441Z,67.80
2018-06-14T19:38:21.021Z,67.12
2018-06-14T19:40:53.461Z,68.00
2018-06-14T19:43:24.487Z,68.00
2018-06-14T19:45:58.241Z,67.48
2018-06-14T19:48:26.109Z,67.49
2018-06-14T19:50:53.686Z,67.97
2018-06-14T19:53:26.111Z,67.30
2018-06-14T19:55:54.530Z,67.83
2018-06-14T19:58:25.530Z,68.19
2018-06-14T20:00:59.226Z,67.89
2018-06-14T20:03:29.415Z,68.28
2018-06-14T20:05:58.478Z,68.12
2018-06-14T20:08:26.361Z,67.48
2018-06-14T20:10:55.390Z,67.97
2018-06-14T20:13:24.014Z,68.38
2018-06-14T20:15:51.878Z,67.46
2018-06-14T20:18:19.477Z,67.38
2018-06-14T20:20:49.083Z,67.45
2018-06-14T20:23:17.792Z,67.91
2018-06-14T20:25:48.229Z,67.46
2018-06-14T20:28:16.628Z,67.66
2018-06-14T20:30:45.431Z,67.73
2018-06-14T20:33:15.211Z,68.14
2018-06-14T20:35:44.382Z,68.39
2018-06-14T20:38:13.106Z,67.82
2018-06-14T20:40:43.120Z,67.99
2018-06-14T20:43:11.698Z,68.20
2018-06-14T20:45:40.134Z,67.84
2018-06-14T20:50:44.505Z,68.16
2018-06-14T20:53:17.643Z,67.46
2018-06-14T20:55:49.928Z,67.43
2018-06-14T20:58:18.619Z,67.92
2018-06-14T21:00:46.998Z,68.26
2018-06-14T21:03:16.392Z,67.61
2018-06-14T21:05:45.385Z,68.12
2018-06-14T21:08:13.791Z,67.92
2018-06-14T21:10:42.601Z,67.33
2018-06-14T21:13:13.218Z,67.79
2018-06-14T21:15:40.802Z,67.41
2018-06-14T21:18:12.562Z,67.44
2018-06-14T21:20:43.326Z,68.02
2018-06-14T21:23:13.849Z,68.12
2018-06-14T21:25:42.034Z,67.78
2018-06-14T21:28:09.907Z,67.29
2018-06-14T21:30:38.538Z,68.03
2018-06-14T21:33:10.480Z,67.81
2018-06-14T21:35:42.270Z,67.86
2018-06-14T21:38:11.406Z,67.50
2018-06-14T21:40:40.457Z,67.96
2018-06-14T21:43:09.324Z,67.85
2018-06-14T21:48:20.447Z,68.07
2018-06-14T21:50:51.218Z,67.17
2018-06-14T21:53:22.052Z,67.21
2018-06-14T21:55:54.153Z,67.37
2018-06-14T21:58:24.275Z,68.18
2018-06-14T22:00:51.932Z,68.05
2018-06-14T22:03:24.457Z,67.52
2018-06-14T22:05:54.895Z,67.82
2018-06-14T22:08:24.279Z,68.10
2018-06-14T22:10:53.454Z,67.74
2018-06-14T22:13:21.291Z,67.36
2018-06-14T22:15:49.600Z,67.38
2018-06-14T22:18:17.169Z,67.38
2018-06-14T22:20:45.285Z,67.64
2018-06-14T22:23:13.128Z,67.67
2018-06-14T22:25:40.698Z,67.53
2018-06-14T22:28:08.569Z,67.72
2018-06-14T22:30:37.826Z,68.18
2018-06-14T22:33:06.270Z,68.73
2018-06-14T22:35:36.290Z,68.30
2018-06-14T22:38:03.866Z,68.89
2018-06-14T22:40:34.458Z,69.21
2018-06-14T22:43:02.382Z,68.94
2018-06-14T22:45:31.270Z,68.82
2018-06-14T22:47:59.601Z,69.30
2018-06-14T22:50:27.198Z,69.58
2018-06-14T22:52:56.406Z,68.96
2018-06-14T22:55:25.770Z,69.54
2018-06-14T22:57:54.493Z,69.55
2018-06-14T23:00:22.238Z,69.35
2018-06-14T23:02:52.085Z,69.28
2018-06-14T23:05:19.686Z,69.38
2018-06-14T23:07:47.290Z,70.06
2018-06-14T23:10:18.865Z,70.24
2018-06-14T23:12:49.675Z,69.53
2018-06-14T23:15:17.939Z,70.40
2018-06-14T23:17:46.446Z,69.89
2018-06-14T23:20:14.766Z,70.02
2018-06-14T23:22:43.716Z,69.96
2018-06-14T23:25:11.525Z,69.94
2018-06-14T23:27:40.643Z,69.95
2018-06-14T23:30:08.838Z,70.26
2018-06-14T23:32:36.670Z,70.25
2018-06-14T23:35:04.248Z,69.86
2018-06-14T23:37:31.852Z,69.93
2018-06-14T23:39:59.414Z,69.61
2018-06-14T23:42:28.127Z,69.93
2018-06-14T23:44:57.124Z,69.88
2018-06-14T23:47:24.794Z,70.54
2018-06-14T23:49:54.486Z,69.59
2018-06-14T23:52:22.313Z,70.06
2018-06-14T23:54:50.038Z,70.25
2018-06-14T23:57:18.050Z,70.14
2018-06-14T23:59:45.650Z,70.08
